FIN57T EDDK-EKCH
Flight info
| Callsign | FIN57T |
|---|---|
| Flight time | 1h 3m |
| Altitude | 37000 |
| Route | PODIP2Q PODIP Y867 PELUN DCT ANZIV DCT WRB Y867 TOLGI DCT MAKEL N851 GESKA Z711 MONAK |
| Aircraft | A320/M-SDE3FGHIRWY/LB1 |
Departure
| Time | 2026-04-22 07:13 |
|---|---|
| Airport | Cologne Bonn Airport (EDDK) |
Arrival
| Time | 2026-04-22 08:16 |
|---|---|
| Airport | Copenhagen Kastrup Airport (EKCH) |
| Time | Latitude | Longitude | Altitude | Speed | Heading |
|---|---|---|---|---|---|
| 2026-04-22 06:29 | 50.86795 | 7.13099 | 238 ft | 0 kts | 47° |
| 2026-04-22 06:57 | 50.86787 | 7.13085 | 238 ft | 4 kts | 48° |
| 2026-04-22 06:57 | 50.86769 | 7.13052 | 238 ft | 4 kts | 51° |
| 2026-04-22 06:58 | 50.86753 | 7.13019 | 238 ft | 4 kts | 55° |
| 2026-04-22 06:58 | 50.86739 | 7.12982 | 238 ft | 4 kts | 71° |
| 2026-04-22 06:58 | 50.86736 | 7.12947 | 238 ft | 4 kts | 127° |
| 2026-04-22 06:58 | 50.86739 | 7.12941 | 238 ft | 0 kts | 137° |
| 2026-04-22 07:01 | 50.86738 | 7.12943 | 238 ft | 2 kts | 138° |
| 2026-04-22 07:01 | 50.86710 | 7.12982 | 238 ft | 7 kts | 137° |
| 2026-04-22 07:01 | 50.86668 | 7.13042 | 238 ft | 9 kts | 138° |
| 2026-04-22 07:02 | 50.86621 | 7.13111 | 239 ft | 10 kts | 136° |
| 2026-04-22 07:02 | 50.86567 | 7.13190 | 238 ft | 12 kts | 137° |
| 2026-04-22 07:02 | 50.86508 | 7.13278 | 241 ft | 10 kts | 128° |
| 2026-04-22 07:02 | 50.86505 | 7.13374 | 243 ft | 9 kts | 67° |
| 2026-04-22 07:03 | 50.86535 | 7.13478 | 239 ft | 14 kts | 65° |
| 2026-04-22 07:03 | 50.86578 | 7.13620 | 239 ft | 15 kts | 64° |
| 2026-04-22 07:03 | 50.86620 | 7.13757 | 243 ft | 13 kts | 64° |
| 2026-04-22 07:03 | 50.86657 | 7.13877 | 246 ft | 11 kts | 64° |
| 2026-04-22 07:04 | 50.86688 | 7.13980 | 250 ft | 9 kts | 64° |
| 2026-04-22 07:04 | 50.86713 | 7.14062 | 251 ft | 10 kts | 65° |
| 2026-04-22 07:04 | 50.86769 | 7.14131 | 251 ft | 13 kts | 355° |
| 2026-04-22 07:04 | 50.86850 | 7.14030 | 246 ft | 15 kts | 317° |
| 2026-04-22 07:05 | 50.86923 | 7.13924 | 243 ft | 8 kts | 316° |
| 2026-04-22 07:05 | 50.86962 | 7.13867 | 243 ft | 8 kts | 316° |
| 2026-04-22 07:05 | 50.86997 | 7.13811 | 243 ft | 7 kts | 313° |
| 2026-04-22 07:05 | 50.87031 | 7.13756 | 242 ft | 7 kts | 316° |
| 2026-04-22 07:06 | 50.87070 | 7.13697 | 241 ft | 8 kts | 317° |
| 2026-04-22 07:06 | 50.87113 | 7.13637 | 240 ft | 8 kts | 317° |
| 2026-04-22 07:06 | 50.87167 | 7.13558 | 238 ft | 11 kts | 317° |
| 2026-04-22 07:06 | 50.87225 | 7.13475 | 237 ft | 12 kts | 317° |
| 2026-04-22 07:07 | 50.87284 | 7.13389 | 235 ft | 11 kts | 317° |
| 2026-04-22 07:07 | 50.87343 | 7.13303 | 235 ft | 12 kts | 317° |
| 2026-04-22 07:07 | 50.87403 | 7.13219 | 232 ft | 11 kts | 324° |
| 2026-04-22 07:07 | 50.87474 | 7.13125 | 232 ft | 18 kts | 317° |
| 2026-04-22 07:08 | 50.87563 | 7.12995 | 230 ft | 14 kts | 317° |
| 2026-04-22 07:08 | 50.87630 | 7.12899 | 230 ft | 12 kts | 317° |
| 2026-04-22 07:08 | 50.87688 | 7.12815 | 230 ft | 10 kts | 317° |
| 2026-04-22 07:08 | 50.87744 | 7.12734 | 230 ft | 11 kts | 317° |
| 2026-04-22 07:09 | 50.87794 | 7.12661 | 230 ft | 9 kts | 317° |
| 2026-04-22 07:09 | 50.87844 | 7.12614 | 230 ft | 8 kts | 341° |
| 2026-04-22 07:09 | 50.87890 | 7.12612 | 230 ft | 6 kts | 10° |
| 2026-04-22 07:09 | 50.87938 | 7.12645 | 232 ft | 10 kts | 33° |
| 2026-04-22 07:10 | 50.87957 | 7.12669 | 231 ft | 0 kts | 41° |
| 2026-04-22 07:10 | 50.87970 | 7.12689 | 232 ft | 5 kts | 46° |
| 2026-04-22 07:10 | 50.87985 | 7.12720 | 233 ft | 6 kts | 55° |
| 2026-04-22 07:10 | 50.87997 | 7.12757 | 236 ft | 1 kts | 66° |
| 2026-04-22 07:11 | 50.88005 | 7.12796 | 235 ft | 2 kts | 71° |
| 2026-04-22 07:11 | 50.88008 | 7.12840 | 236 ft | 9 kts | 83° |
| 2026-04-22 07:11 | 50.88015 | 7.12934 | 238 ft | 8 kts | 84° |
| 2026-04-22 07:11 | 50.87998 | 7.12979 | 238 ft | 2 kts | 141° |
| 2026-04-22 07:12 | 50.87909 | 7.13107 | 242 ft | 52 kts | 137° |
| 2026-04-22 07:12 | 50.87473 | 7.13741 | 247 ft | 116 kts | 137° |
| 2026-04-22 07:13 | 50.86756 | 7.14778 | 284 ft | 161 kts | 134° |
| 2026-04-22 07:13 | 50.85935 | 7.15962 | 913 ft | 158 kts | 136° |
| 2026-04-22 07:13 | 50.85112 | 7.17119 | 1675 ft | 162 kts | 136° |
| 2026-04-22 07:13 | 50.84216 | 7.18377 | 2044 ft | 181 kts | 135° |
| 2026-04-22 07:14 | 50.83225 | 7.19764 | 2301 ft | 208 kts | 136° |
| 2026-04-22 07:14 | 50.82155 | 7.21404 | 2951 ft | 214 kts | 123° |
| 2026-04-22 07:14 | 50.81609 | 7.23615 | 3718 ft | 217 kts | 103° |
| 2026-04-22 07:14 | 50.81328 | 7.26012 | 4332 ft | 232 kts | 98° |
| 2026-04-22 07:15 | 50.81073 | 7.28666 | 4815 ft | 251 kts | 97° |
| 2026-04-22 07:15 | 50.80828 | 7.31365 | 5779 ft | 251 kts | 97° |
| 2026-04-22 07:15 | 50.80585 | 7.34123 | 6682 ft | 255 kts | 96° |
| 2026-04-22 07:15 | 50.80341 | 7.36928 | 7544 ft | 257 kts | 97° |
| 2026-04-22 07:16 | 50.80094 | 7.39737 | 8405 ft | 259 kts | 97° |
| 2026-04-22 07:16 | 50.79841 | 7.42584 | 9261 ft | 262 kts | 96° |
| 2026-04-22 07:16 | 50.79587 | 7.45455 | 10091 ft | 265 kts | 96° |
| 2026-04-22 07:16 | 50.79331 | 7.48349 | 10730 ft | 275 kts | 96° |
| 2026-04-22 07:17 | 50.79056 | 7.51476 | 10973 ft | 298 kts | 96° |
| 2026-04-22 07:17 | 50.78844 | 7.54853 | 11275 ft | 315 kts | 88° |
| 2026-04-22 07:17 | 50.79194 | 7.58309 | 11892 ft | 321 kts | 72° |
| 2026-04-22 07:17 | 50.80174 | 7.61505 | 12603 ft | 326 kts | 56° |
| 2026-04-22 07:18 | 50.81691 | 7.64139 | 13310 ft | 331 kts | 43° |
| 2026-04-22 07:18 | 50.83419 | 7.66577 | 14053 ft | 334 kts | 43° |
| 2026-04-22 07:18 | 50.85164 | 7.69035 | 14715 ft | 337 kts | 43° |
| 2026-04-22 07:18 | 50.86922 | 7.71516 | 15363 ft | 339 kts | 43° |
| 2026-04-22 07:19 | 50.88699 | 7.74030 | 16003 ft | 342 kts | 43° |
| 2026-04-22 07:19 | 50.90463 | 7.76529 | 16627 ft | 345 kts | 43° |
| 2026-04-22 07:19 | 50.92263 | 7.79081 | 17265 ft | 348 kts | 43° |
| 2026-04-22 07:19 | 50.93998 | 7.81778 | 17879 ft | 350 kts | 50° |
| 2026-04-22 07:20 | 50.95407 | 7.84947 | 18492 ft | 353 kts | 59° |
| 2026-04-22 07:20 | 50.96653 | 7.88319 | 19053 ft | 355 kts | 59° |
| 2026-04-22 07:20 | 50.97909 | 7.91713 | 19599 ft | 358 kts | 59° |
| 2026-04-22 07:20 | 50.99168 | 7.95117 | 20144 ft | 361 kts | 59° |
| 2026-04-22 07:21 | 51.00446 | 7.98580 | 20702 ft | 363 kts | 59° |
| 2026-04-22 07:21 | 51.01727 | 8.02055 | 21245 ft | 366 kts | 59° |
| 2026-04-22 07:21 | 51.03021 | 8.05570 | 21793 ft | 369 kts | 59° |
| 2026-04-22 07:21 | 51.04323 | 8.09112 | 22300 ft | 372 kts | 59° |
| 2026-04-22 07:22 | 51.05622 | 8.12643 | 22799 ft | 375 kts | 59° |
| 2026-04-22 07:22 | 51.06934 | 8.16213 | 23381 ft | 375 kts | 59° |
| 2026-04-22 07:22 | 51.08253 | 8.19814 | 23899 ft | 377 kts | 59° |
| 2026-04-22 07:22 | 51.09573 | 8.23431 | 24302 ft | 379 kts | 59° |
| 2026-04-22 07:23 | 51.10900 | 8.27080 | 24704 ft | 381 kts | 59° |
| 2026-04-22 07:23 | 51.12233 | 8.30752 | 25107 ft | 383 kts | 59° |
| 2026-04-22 07:23 | 51.13569 | 8.34435 | 25309 ft | 384 kts | 59° |
| 2026-04-22 07:23 | 51.14911 | 8.38137 | 25522 ft | 386 kts | 59° |
| 2026-04-22 07:24 | 51.16241 | 8.41819 | 25902 ft | 388 kts | 60° |
| 2026-04-22 07:24 | 51.17585 | 8.45556 | 26274 ft | 390 kts | 60° |
| 2026-04-22 07:24 | 51.18938 | 8.49321 | 26641 ft | 391 kts | 60° |
| 2026-04-22 07:24 | 51.20379 | 8.53037 | 26997 ft | 394 kts | 54° |
| 2026-04-22 07:25 | 51.22109 | 8.56429 | 27346 ft | 396 kts | 50° |
| 2026-04-22 07:25 | 51.23887 | 8.59802 | 27722 ft | 398 kts | 50° |
| 2026-04-22 07:25 | 51.25674 | 8.63200 | 28012 ft | 400 kts | 50° |
| 2026-04-22 07:25 | 51.27468 | 8.66615 | 28395 ft | 401 kts | 51° |
| 2026-04-22 07:26 | 51.29268 | 8.70049 | 28743 ft | 402 kts | 51° |
| 2026-04-22 07:26 | 51.31064 | 8.73482 | 29061 ft | 404 kts | 51° |
| 2026-04-22 07:26 | 51.32848 | 8.76901 | 29360 ft | 406 kts | 51° |
| 2026-04-22 07:26 | 51.34651 | 8.80374 | 29653 ft | 408 kts | 51° |
| 2026-04-22 07:27 | 51.36474 | 8.83890 | 29942 ft | 410 kts | 51° |
| 2026-04-22 07:27 | 51.38306 | 8.87421 | 30224 ft | 411 kts | 51° |
| 2026-04-22 07:27 | 51.40138 | 8.90952 | 30491 ft | 413 kts | 51° |
| 2026-04-22 07:27 | 51.41989 | 8.94514 | 30696 ft | 415 kts | 51° |
| 2026-04-22 07:28 | 51.45684 | 9.01629 | 31095 ft | 418 kts | 51° |
| 2026-04-22 07:28 | 51.47547 | 9.05230 | 31368 ft | 417 kts | 51° |
| 2026-04-22 07:28 | 51.49378 | 9.08772 | 31673 ft | 416 kts | 50° |
| 2026-04-22 07:29 | 51.51411 | 9.12147 | 31955 ft | 417 kts | 41° |
| 2026-04-22 07:29 | 51.53644 | 9.15053 | 32200 ft | 417 kts | 39° |
| 2026-04-22 07:29 | 51.55910 | 9.17968 | 32476 ft | 417 kts | 40° |
| 2026-04-22 07:29 | 51.58174 | 9.20899 | 32743 ft | 417 kts | 40° |
| 2026-04-22 07:30 | 51.60433 | 9.23837 | 33016 ft | 417 kts | 40° |
| 2026-04-22 07:30 | 51.62686 | 9.26772 | 33289 ft | 417 kts | 40° |
| 2026-04-22 07:30 | 51.64936 | 9.29710 | 33560 ft | 416 kts | 39° |
| 2026-04-22 07:30 | 51.67192 | 9.32655 | 33832 ft | 416 kts | 39° |
| 2026-04-22 07:31 | 51.69415 | 9.35557 | 34138 ft | 415 kts | 39° |
| 2026-04-22 07:31 | 51.71665 | 9.38495 | 34436 ft | 414 kts | 39° |
| 2026-04-22 07:31 | 51.73902 | 9.41420 | 34662 ft | 414 kts | 39° |
| 2026-04-22 07:31 | 51.76144 | 9.44357 | 34869 ft | 414 kts | 39° |
| 2026-04-22 07:32 | 51.78367 | 9.47278 | 35065 ft | 415 kts | 39° |
| 2026-04-22 07:32 | 51.80618 | 9.50235 | 35262 ft | 415 kts | 39° |
| 2026-04-22 07:32 | 51.82928 | 9.53077 | 35446 ft | 416 kts | 33° |
| 2026-04-22 07:32 | 51.85462 | 9.55347 | 35621 ft | 417 kts | 27° |
| 2026-04-22 07:33 | 51.88041 | 9.57420 | 35798 ft | 418 kts | 27° |
| 2026-04-22 07:33 | 51.90635 | 9.59514 | 35971 ft | 418 kts | 27° |
| 2026-04-22 07:33 | 51.93261 | 9.61640 | 36159 ft | 418 kts | 27° |
| 2026-04-22 07:33 | 51.95868 | 9.63759 | 36330 ft | 419 kts | 27° |
| 2026-04-22 07:34 | 51.98450 | 9.65860 | 36499 ft | 419 kts | 27° |
| 2026-04-22 07:34 | 52.01100 | 9.68020 | 36658 ft | 420 kts | 27° |
| 2026-04-22 07:34 | 52.03689 | 9.70138 | 36813 ft | 420 kts | 27° |
| 2026-04-22 07:34 | 52.06312 | 9.72289 | 36968 ft | 420 kts | 27° |
| 2026-04-22 07:35 | 52.08904 | 9.74414 | 37122 ft | 421 kts | 27° |
| 2026-04-22 07:35 | 52.11517 | 9.76555 | 37282 ft | 421 kts | 27° |
| 2026-04-22 07:35 | 52.15895 | 9.80148 | 37406 ft | 422 kts | 27° |
| 2026-04-22 07:36 | 52.21997 | 9.85164 | 37409 ft | 422 kts | 27° |
| 2026-04-22 07:36 | 52.26400 | 9.88784 | 37411 ft | 422 kts | 27° |
| 2026-04-22 07:37 | 52.31642 | 9.93114 | 37420 ft | 422 kts | 27° |
| 2026-04-22 07:37 | 52.36855 | 9.97439 | 37404 ft | 422 kts | 28° |
| 2026-04-22 07:38 | 52.42094 | 10.01802 | 37409 ft | 422 kts | 28° |
| 2026-04-22 07:38 | 52.47337 | 10.06176 | 37409 ft | 422 kts | 28° |
| 2026-04-22 07:39 | 52.52576 | 10.10552 | 37412 ft | 422 kts | 28° |
| 2026-04-22 07:39 | 52.57795 | 10.14919 | 37402 ft | 422 kts | 28° |
| 2026-04-22 07:40 | 52.63030 | 10.19321 | 37402 ft | 422 kts | 28° |
| 2026-04-22 07:40 | 52.68238 | 10.23714 | 37404 ft | 422 kts | 28° |
| 2026-04-22 07:41 | 52.73476 | 10.28134 | 37407 ft | 422 kts | 28° |
| 2026-04-22 07:41 | 52.78679 | 10.32536 | 37403 ft | 422 kts | 28° |
| 2026-04-22 07:42 | 52.83910 | 10.36985 | 37411 ft | 422 kts | 28° |
| 2026-04-22 07:42 | 52.89139 | 10.41448 | 37412 ft | 422 kts | 28° |
| 2026-04-22 07:43 | 52.94362 | 10.45907 | 37411 ft | 422 kts | 28° |
| 2026-04-22 07:43 | 52.99555 | 10.50352 | 37407 ft | 422 kts | 28° |
| 2026-04-22 07:44 | 53.04782 | 10.54833 | 37408 ft | 422 kts | 28° |
| 2026-04-22 07:44 | 53.09975 | 10.59313 | 37410 ft | 422 kts | 28° |
| 2026-04-22 07:45 | 53.15199 | 10.63839 | 37412 ft | 422 kts | 28° |
| 2026-04-22 07:45 | 53.20388 | 10.68323 | 37414 ft | 422 kts | 28° |
| 2026-04-22 07:46 | 53.25609 | 10.72846 | 37410 ft | 422 kts | 28° |
| 2026-04-22 07:46 | 53.30822 | 10.77392 | 37400 ft | 421 kts | 28° |
| 2026-04-22 07:47 | 53.35993 | 10.81893 | 37407 ft | 421 kts | 28° |
| 2026-04-22 07:47 | 53.41187 | 10.86438 | 37411 ft | 421 kts | 28° |
| 2026-04-22 07:48 | 53.46372 | 10.91005 | 37424 ft | 421 kts | 29° |
| 2026-04-22 07:48 | 53.51556 | 10.95585 | 37409 ft | 421 kts | 29° |
| 2026-04-22 07:49 | 53.56746 | 11.00148 | 37408 ft | 421 kts | 29° |
| 2026-04-22 07:49 | 53.61934 | 11.04722 | 37404 ft | 420 kts | 29° |
| 2026-04-22 07:50 | 53.67112 | 11.09326 | 37394 ft | 420 kts | 29° |
| 2026-04-22 07:50 | 53.72273 | 11.13922 | 37395 ft | 420 kts | 29° |
| 2026-04-22 07:51 | 53.77456 | 11.18544 | 37398 ft | 420 kts | 29° |
| 2026-04-22 07:51 | 53.82629 | 11.23179 | 37394 ft | 420 kts | 29° |
| 2026-04-22 07:52 | 53.87770 | 11.27800 | 37113 ft | 419 kts | 29° |
| 2026-04-22 07:52 | 53.90346 | 11.30120 | 36858 ft | 418 kts | 29° |
| 2026-04-22 07:52 | 53.92913 | 11.32435 | 36601 ft | 417 kts | 29° |
| 2026-04-22 07:53 | 53.95492 | 11.34765 | 36339 ft | 417 kts | 30° |
| 2026-04-22 07:53 | 53.98022 | 11.37050 | 36083 ft | 416 kts | 30° |
| 2026-04-22 07:53 | 54.00578 | 11.39359 | 35835 ft | 416 kts | 30° |
| 2026-04-22 07:53 | 54.03135 | 11.41674 | 35581 ft | 415 kts | 30° |
| 2026-04-22 07:54 | 54.05690 | 11.43995 | 35338 ft | 415 kts | 30° |
| 2026-04-22 07:54 | 54.08234 | 11.46310 | 35053 ft | 415 kts | 30° |
| 2026-04-22 07:54 | 54.10786 | 11.48635 | 34194 ft | 418 kts | 30° |
| 2026-04-22 07:54 | 54.13357 | 11.50978 | 33284 ft | 418 kts | 30° |
| 2026-04-22 07:55 | 54.15919 | 11.53317 | 32491 ft | 416 kts | 30° |
| 2026-04-22 07:55 | 54.18448 | 11.55627 | 32022 ft | 408 kts | 30° |
| 2026-04-22 07:55 | 54.20931 | 11.57898 | 31474 ft | 402 kts | 30° |
| 2026-04-22 07:55 | 54.23351 | 11.60115 | 30935 ft | 396 kts | 30° |
| 2026-04-22 07:56 | 54.25801 | 11.62360 | 30402 ft | 391 kts | 30° |
| 2026-04-22 07:56 | 54.28154 | 11.64521 | 29842 ft | 386 kts | 30° |
| 2026-04-22 07:56 | 54.30502 | 11.66682 | 29337 ft | 379 kts | 29° |
| 2026-04-22 07:56 | 54.32820 | 11.68813 | 28831 ft | 373 kts | 29° |
| 2026-04-22 07:57 | 54.35095 | 11.70908 | 28347 ft | 368 kts | 29° |
| 2026-04-22 07:57 | 54.37344 | 11.72979 | 27867 ft | 363 kts | 29° |
| 2026-04-22 07:57 | 54.39547 | 11.75014 | 27388 ft | 358 kts | 29° |
| 2026-04-22 07:57 | 54.41712 | 11.77020 | 26931 ft | 353 kts | 29° |
| 2026-04-22 07:58 | 54.43864 | 11.79016 | 26454 ft | 350 kts | 28° |
| 2026-04-22 07:58 | 54.46007 | 11.80935 | 26234 ft | 340 kts | 25° |
| 2026-04-22 07:58 | 54.48244 | 11.82376 | 25426 ft | 348 kts | 20° |
| 2026-04-22 07:58 | 54.50561 | 11.83691 | 24772 ft | 351 kts | 19° |
| 2026-04-22 07:59 | 54.52862 | 11.84951 | 24269 ft | 349 kts | 18° |
| 2026-04-22 07:59 | 54.55172 | 11.86202 | 23779 ft | 347 kts | 18° |
| 2026-04-22 07:59 | 54.57469 | 11.87451 | 23230 ft | 344 kts | 18° |
| 2026-04-22 07:59 | 54.59746 | 11.88697 | 22687 ft | 342 kts | 18° |
| 2026-04-22 08:00 | 54.62018 | 11.89950 | 22166 ft | 340 kts | 18° |
| 2026-04-22 08:00 | 54.64272 | 11.91202 | 21652 ft | 339 kts | 18° |
| 2026-04-22 08:00 | 54.66483 | 11.92431 | 21165 ft | 336 kts | 18° |
| 2026-04-22 08:00 | 54.68701 | 11.93667 | 20659 ft | 335 kts | 18° |
| 2026-04-22 08:01 | 54.70919 | 11.94906 | 20163 ft | 334 kts | 18° |
| 2026-04-22 08:01 | 54.73123 | 11.96141 | 19685 ft | 332 kts | 18° |
| 2026-04-22 08:01 | 54.75322 | 11.97373 | 19223 ft | 331 kts | 18° |
| 2026-04-22 08:01 | 54.77515 | 11.98606 | 18759 ft | 329 kts | 18° |
| 2026-04-22 08:02 | 54.79670 | 11.99818 | 18275 ft | 328 kts | 18° |
| 2026-04-22 08:02 | 54.81847 | 12.01042 | 17767 ft | 327 kts | 18° |
| 2026-04-22 08:02 | 54.84006 | 12.02252 | 17279 ft | 325 kts | 18° |
| 2026-04-22 08:02 | 54.86159 | 12.03460 | 16820 ft | 324 kts | 18° |
| 2026-04-22 08:03 | 54.88301 | 12.04660 | 16374 ft | 322 kts | 18° |
| 2026-04-22 08:03 | 54.90432 | 12.05858 | 15936 ft | 320 kts | 18° |
| 2026-04-22 08:03 | 54.92522 | 12.07038 | 15415 ft | 316 kts | 18° |
| 2026-04-22 08:03 | 54.94609 | 12.08224 | 14695 ft | 315 kts | 18° |
| 2026-04-22 08:04 | 54.96689 | 12.09405 | 14147 ft | 312 kts | 17° |
| 2026-04-22 08:04 | 54.98743 | 12.10569 | 13525 ft | 310 kts | 17° |
| 2026-04-22 08:04 | 55.00798 | 12.11730 | 12909 ft | 308 kts | 17° |
| 2026-04-22 08:04 | 55.02834 | 12.12885 | 12304 ft | 306 kts | 17° |
| 2026-04-22 08:05 | 55.04826 | 12.14020 | 11717 ft | 304 kts | 17° |
| 2026-04-22 08:05 | 55.06826 | 12.15161 | 11129 ft | 301 kts | 17° |
| 2026-04-22 08:05 | 55.08818 | 12.16297 | 10543 ft | 299 kts | 17° |
| 2026-04-22 08:05 | 55.10772 | 12.17414 | 10311 ft | 286 kts | 17° |
| 2026-04-22 08:06 | 55.12621 | 12.18468 | 10120 ft | 273 kts | 17° |
| 2026-04-22 08:06 | 55.14389 | 12.19475 | 9693 ft | 268 kts | 17° |
| 2026-04-22 08:06 | 55.16152 | 12.20478 | 9199 ft | 265 kts | 17° |
| 2026-04-22 08:06 | 55.17908 | 12.21478 | 8692 ft | 263 kts | 17° |
| 2026-04-22 08:07 | 55.19645 | 12.22473 | 8198 ft | 261 kts | 17° |
| 2026-04-22 08:07 | 55.21375 | 12.23469 | 7727 ft | 260 kts | 17° |
| 2026-04-22 08:07 | 55.23091 | 12.24455 | 7342 ft | 259 kts | 17° |
| 2026-04-22 08:07 | 55.24779 | 12.25423 | 6962 ft | 257 kts | 17° |
| 2026-04-22 08:08 | 55.26486 | 12.26404 | 6571 ft | 256 kts | 17° |
| 2026-04-22 08:08 | 55.28174 | 12.27374 | 6152 ft | 255 kts | 17° |
| 2026-04-22 08:08 | 55.29858 | 12.28344 | 5739 ft | 254 kts | 17° |
| 2026-04-22 08:08 | 55.31538 | 12.29311 | 5309 ft | 253 kts | 16° |
| 2026-04-22 08:09 | 55.33190 | 12.30258 | 4903 ft | 252 kts | 16° |
| 2026-04-22 08:09 | 55.34851 | 12.31213 | 4481 ft | 250 kts | 16° |
| 2026-04-22 08:09 | 55.36496 | 12.32163 | 4115 ft | 247 kts | 16° |
| 2026-04-22 08:09 | 55.38127 | 12.33107 | 3744 ft | 244 kts | 15° |
| 2026-04-22 08:10 | 55.39693 | 12.34021 | 3624 ft | 231 kts | 15° |
| 2026-04-22 08:10 | 55.41190 | 12.34897 | 3489 ft | 220 kts | 15° |
| 2026-04-22 08:10 | 55.42607 | 12.35723 | 3346 ft | 210 kts | 16° |
| 2026-04-22 08:10 | 55.43889 | 12.36855 | 3207 ft | 205 kts | 31° |
| 2026-04-22 08:11 | 55.44964 | 12.38448 | 3101 ft | 196 kts | 37° |
| 2026-04-22 08:11 | 55.45962 | 12.39987 | 3032 ft | 184 kts | 36° |
| 2026-04-22 08:11 | 55.46867 | 12.41377 | 3007 ft | 163 kts | 35° |
| 2026-04-22 08:11 | 55.47677 | 12.42619 | 2963 ft | 147 kts | 34° |
| 2026-04-22 08:12 | 55.48439 | 12.43781 | 2840 ft | 144 kts | 34° |
| 2026-04-22 08:12 | 55.49199 | 12.44943 | 2668 ft | 143 kts | 34° |
| 2026-04-22 08:12 | 55.49939 | 12.46077 | 2485 ft | 142 kts | 33° |
| 2026-04-22 08:12 | 55.50676 | 12.47208 | 2308 ft | 137 kts | 34° |
| 2026-04-22 08:13 | 55.51389 | 12.48303 | 2115 ft | 134 kts | 32° |
| 2026-04-22 08:13 | 55.52088 | 12.49369 | 1933 ft | 132 kts | 33° |
| 2026-04-22 08:13 | 55.52772 | 12.50429 | 1756 ft | 132 kts | 33° |
| 2026-04-22 08:13 | 55.53465 | 12.51491 | 1563 ft | 131 kts | 33° |
| 2026-04-22 08:14 | 55.54157 | 12.52553 | 1387 ft | 132 kts | 33° |
| 2026-04-22 08:14 | 55.54843 | 12.53614 | 1197 ft | 130 kts | 33° |
| 2026-04-22 08:14 | 55.55296 | 12.54309 | 1074 ft | 130 kts | 33° |
| 2026-04-22 08:14 | 55.55985 | 12.55365 | 889 ft | 133 kts | 35° |
| 2026-04-22 08:15 | 55.56691 | 12.56454 | 730 ft | 136 kts | 36° |
| 2026-04-22 08:15 | 55.57636 | 12.57911 | 498 ft | 136 kts | 37° |
| 2026-04-22 08:15 | 55.58116 | 12.58653 | 357 ft | 134 kts | 36° |
| 2026-04-22 08:15 | 55.58808 | 12.59721 | 157 ft | 134 kts | 38° |
| 2026-04-22 08:16 | 55.59499 | 12.60796 | 29 ft | 124 kts | 39° |
| 2026-04-22 08:16 | 55.60033 | 12.61612 | 23 ft | 79 kts | 41° |
| 2026-04-22 08:16 | 55.60336 | 12.62078 | 17 ft | 47 kts | 41° |
| 2026-04-22 08:16 | 55.60524 | 12.62297 | 21 ft | 21 kts | 24° |
| 2026-04-22 08:17 | 55.60605 | 12.62333 | 25 ft | 6 kts | 14° |
| 2026-04-22 08:17 | 55.60643 | 12.62349 | 27 ft | 5 kts | 11° |
| 2026-04-22 08:17 | 55.60687 | 12.62362 | 24 ft | 8 kts | 9° |
| 2026-04-22 08:17 | 55.60760 | 12.62392 | 22 ft | 13 kts | 19° |
| 2026-04-22 08:18 | 55.60841 | 12.62479 | 24 ft | 15 kts | 40° |
| 2026-04-22 08:18 | 55.60928 | 12.62614 | 19 ft | 19 kts | 41° |
| 2026-04-22 08:18 | 55.61033 | 12.62774 | 19 ft | 21 kts | 40° |
| 2026-04-22 08:18 | 55.61145 | 12.62947 | 22 ft | 21 kts | 41° |
| 2026-04-22 08:19 | 55.61259 | 12.63124 | 22 ft | 22 kts | 40° |
| 2026-04-22 08:19 | 55.61378 | 12.63310 | 20 ft | 24 kts | 41° |
| 2026-04-22 08:19 | 55.61510 | 12.63512 | 18 ft | 27 kts | 41° |
| 2026-04-22 08:19 | 55.61651 | 12.63730 | 18 ft | 27 kts | 41° |
| 2026-04-22 08:20 | 55.61790 | 12.63946 | 21 ft | 26 kts | 42° |
| 2026-04-22 08:20 | 55.61915 | 12.64107 | 21 ft | 20 kts | 28° |
| 2026-04-22 08:20 | 55.62051 | 12.64220 | 19 ft | 23 kts | 25° |
| 2026-04-22 08:20 | 55.62178 | 12.64328 | 17 ft | 15 kts | 25° |
| 2026-04-22 08:21 | 55.62246 | 12.64355 | 19 ft | 9 kts | 332° |
| 2026-04-22 08:21 | 55.62285 | 12.64271 | 17 ft | 10 kts | 303° |
| 2026-04-22 08:21 | 55.62330 | 12.64147 | 16 ft | 13 kts | 303° |
| 2026-04-22 08:21 | 55.62380 | 12.64015 | 18 ft | 12 kts | 303° |
| 2026-04-22 08:22 | 55.62429 | 12.63885 | 19 ft | 13 kts | 304° |
| 2026-04-22 08:22 | 55.62496 | 12.63788 | 22 ft | 12 kts | 338° |
| 2026-04-22 08:22 | 55.62573 | 12.63771 | 24 ft | 12 kts | 3° |
| 2026-04-22 08:22 | 55.62656 | 12.63821 | 26 ft | 14 kts | 31° |
| 2026-04-22 08:23 | 55.62744 | 12.63923 | 24 ft | 16 kts | 32° |
| 2026-04-22 08:23 | 55.62815 | 12.64009 | 23 ft | 12 kts | 48° |
| 2026-04-22 08:23 | 55.62842 | 12.64138 | 21 ft | 11 kts | 96° |
| 2026-04-22 08:23 | 55.62818 | 12.64203 | 21 ft | 5 kts | 123° |
| 2026-04-22 08:24 | 55.62812 | 12.64218 | 21 ft | 0 kts | 122° |